Odessa, Odessa Schlemeyer Field (KODO)

NameOdessa Schlemeyer Field
CityOdessa
CountryUnited States
ICAOKODO
IATA
Altitude916 m
CoordinatesGoogle Map
Live Air TrafficLiveATC.net
METARKODO 161453Z AUTO 23005KT 6SM BR CLR 06/04 A3017 RMK AO2 SLP207 T00560044 53011
2019-01-16 14:53:00 Wind: Southwest (230°) 2.57 m/s - Visibility: 9656.04 m - Weather: Mist - Temperature: 6 °C - Dew point: 4 °C - Humidity: 87.2% - Pressure: 1021.67 hPa
Statistics

The table below shows the detailed information of all flights to/from Odessa, Odessa Schlemeyer Field (KODO).